Time;durP1;ratioP1;P1;durP2;ratioP2;P2;SDS_P1;SDS_P2;PMS_P1;PMS_P2;Temp;Humidity;BMP_temperature;BMP_pressure;BME280_temperature;BME280_humidity;BME280_pressure;Samples;Min_cycle;Max_cycle;Signal;HPM_P1;HPM_P2
2022/06/21 00:00:47;;;;;;;2.00;1.70;;;;;;;15.77;82.54;96107.31;107239;1275;42013;-82
2022/06/21 00:03:23;;;;;;;1.60;1.50;;;;;;;15.74;82.10;96101.31;107375;1274;35905;-83
2022/06/21 00:05:56;;;;;;;2.20;1.50;;;;;;;15.79;81.84;96119.54;107416;1274;35296;-83
2022/06/21 00:08:30;;;;;;;3.70;1.30;;;;;;;15.83;81.58;96116.55;107281;1277;60388;-83
2022/06/21 00:11:02;;;;;;;3.40;1.40;;;;;;;15.80;81.33;96121.40;107327;1275;32933;-82
2022/06/21 00:13:35;;;;;;;2.80;0.90;;;;;;;15.76;80.77;96123.48;107259;1274;48415;-82
2022/06/21 00:16:11;;;;;;;1.90;1.50;;;;;;;15.66;79.74;96122.98;107341;1274;37770;-82
2022/06/21 00:18:45;;;;;;;2.00;1.30;;;;;;;15.47;79.64;96121.91;107341;1274;33099;-82
2022/06/21 00:21:19;;;;;;;2.30;1.50;;;;;;;15.46;79.60;96129.73;107253;1275;49892;-82
2022/06/21 00:23:51;;;;;;;1.40;1.20;;;;;;;15.46;79.55;96128.96;107324;1275;33918;-82
2022/06/21 00:26:24;;;;;;;1.80;1.30;;;;;;;15.46;79.48;96125.77;107394;1274;44397;-82
2022/06/21 00:28:56;;;;;;;1.20;1.10;;;;;;;15.33;79.52;96129.93;107243;1275;44889;-82
2022/06/21 00:31:29;;;;;;;1.90;1.30;;;;;;;15.26;79.92;96129.55;107234;1274;79112;-81
2022/06/21 00:34:05;;;;;;;1.70;1.20;;;;;;;15.20;80.13;96129.39;107286;1275;46315;-82
2022/06/21 00:36:38;;;;;;;2.40;1.90;;;;;;;15.27;80.32;96126.84;107293;1274;36874;-81
2022/06/21 00:39:11;;;;;;;2.50;1.70;;;;;;;15.31;80.35;96127.23;107268;1278;32338;-82
2022/06/21 00:41:48;;;;;;;1.70;1.40;;;;;;;15.33;80.42;96128.60;107372;1274;38619;-82
2022/06/21 00:44:24;;;;;;;1.50;1.40;;;;;;;15.29;80.60;96128.59;107154;1275;64852;-82
2022/06/21 00:47:03;;;;;;;2.30;1.40;;;;;;;15.24;80.45;96127.80;107321;1274;41643;-81
2022/06/21 00:49:37;;;;;;;1.40;1.30;;;;;;;15.18;80.20;96131.51;107309;1274;37221;-82
2022/06/21 00:52:14;;;;;;;3.10;1.40;;;;;;;15.10;80.18;96140.34;107310;1274;34568;-82
2022/06/21 00:54:57;;;;;;;2.70;1.40;;;;;;;15.05;80.06;96138.73;107300;1274;37102;-82
2022/06/21 00:57:37;;;;;;;2.90;1.50;;;;;;;15.01;79.99;96132.91;107278;1275;47681;-82
2022/06/21 01:00:31;;;;;;;2.40;1.40;;;;;;;14.94;80.16;96132.71;107199;1274;38134;-82
2022/06/21 01:03:07;;;;;;;2.50;1.60;;;;;;;14.96;80.17;96123.70;107281;1274;32597;-82
2022/06/21 01:05:42;;;;;;;2.40;1.30;;;;;;;14.97;79.89;96113.70;107307;1275;29370;-81
2022/06/21 01:08:18;;;;;;;1.80;1.60;;;;;;;14.92;80.05;96114.04;107299;1274;33804;-82
2022/06/21 01:10:55;;;;;;;3.30;2.00;;;;;;;14.76;80.41;96114.50;107352;1274;37333;-83
2022/06/21 01:13:32;;;;;;;2.50;1.80;;;;;;;14.62;81.18;96131.90;107312;1274;43955;-81
2022/06/21 01:16:04;;;;;;;2.30;2.00;;;;;;;14.60;81.32;96127.20;107169;1275;107840;-82
2022/06/21 01:18:36;;;;;;;3.10;2.40;;;;;;;14.60;81.47;96135.67;107295;1274;37341;-82
2022/06/21 01:21:08;;;;;;;5.60;2.60;;;;;;;14.51;81.26;96135.20;107215;1274;43668;-83
2022/06/21 01:24:13;;;;;;;3.40;2.30;;;;;;;14.56;81.34;96126.89;107262;1274;49566;-82
2022/06/21 01:26:53;;;;;;;2.50;1.80;;;;;;;14.55;81.03;96126.11;107105;1279;31557;-82
2022/06/21 01:29:28;;;;;;;2.50;1.90;;;;;;;14.46;81.38;96125.97;107202;1275;82806;-81
2022/06/21 01:32:02;;;;;;;2.10;1.80;;;;;;;14.35;81.76;96129.81;107170;1274;50232;-82
2022/06/21 01:34:33;;;;;;;2.00;1.90;;;;;;;14.26;81.89;96128.22;107164;1274;63543;-82
2022/06/21 01:37:09;;;;;;;3.80;2.20;;;;;;;14.20;82.26;96128.55;107249;1275;36234;-82
2022/06/21 01:39:47;;;;;;;1.90;1.80;;;;;;;14.03;83.01;96131.45;107243;1274;34953;-81
2022/06/21 01:42:26;;;;;;;2.60;2.30;;;;;;;13.95;82.98;96133.91;107300;1274;54036;-82
2022/06/21 01:45:02;;;;;;;2.20;2.00;;;;;;;13.92;82.86;96130.86;107247;1275;61169;-82
2022/06/21 01:47:42;;;;;;;2.00;1.70;;;;;;;13.90;83.56;96130.98;107279;1274;60017;-81
2022/06/21 01:50:14;;;;;;;1.80;1.70;;;;;;;13.68;83.96;96133.41;107168;1274;55947;-82
2022/06/21 01:52:48;;;;;;;2.00;1.60;;;;;;;13.58;84.11;96133.69;107256;1274;57543;-82
2022/06/21 01:55:26;;;;;;;1.80;1.70;;;;;;;13.55;84.25;96137.29;107283;1274;34495;-82
2022/06/21 01:58:00;;;;;;;2.80;1.80;;;;;;;13.50;84.28;96141.30;107279;1274;32350;-82
2022/06/21 02:00:32;;;;;;;2.60;1.70;;;;;;;13.47;84.09;96144.37;107272;1274;40314;-81
2022/06/21 02:03:08;;;;;;;2.30;2.10;;;;;;;13.44;84.06;96139.19;107163;1274;71479;-82
2022/06/21 02:05:45;;;;;;;2.00;1.80;;;;;;;13.42;83.78;96136.36;107182;1274;52202;-82
2022/06/21 02:08:21;;;;;;;1.20;1.10;;;;;;;13.41;83.89;96144.01;107109;1274;62513;-81
2022/06/21 02:10:55;;;;;;;2.10;1.90;;;;;;;13.26;84.52;96147.75;107351;1274;35865;-82
2022/06/21 02:13:32;;;;;;;1.90;1.70;;;;;;;13.16;84.35;96152.55;107186;1276;56576;-81
2022/06/21 02:16:09;;;;;;;5.40;2.10;;;;;;;13.25;84.34;96155.61;107289;1274;36476;-81
2022/06/21 02:18:44;;;;;;;2.10;1.90;;;;;;;13.26;83.90;96161.07;107174;1274;53997;-82
2022/06/21 02:21:21;;;;;;;1.90;1.80;;;;;;;13.29;83.53;96161.98;107156;1274;50650;-81
2022/06/21 02:23:55;;;;;;;2.40;2.20;;;;;;;13.30;83.31;96167.57;107333;1274;35293;-82
2022/06/21 02:26:29;;;;;;;2.40;2.20;;;;;;;13.30;82.87;96173.30;107393;1274;35954;-81
2022/06/21 02:29:00;;;;;;;5.40;2.90;;;;;;;13.32;82.98;96176.28;107321;1274;33151;-82
2022/06/21 02:31:32;;;;;;;3.10;2.60;;;;;;;13.32;82.98;96174.20;107244;1274;35372;-81
2022/06/21 02:34:10;;;;;;;4.10;2.80;;;;;;;13.39;83.22;96176.00;107248;1275;56418;-82
2022/06/21 02:36:48;;;;;;;3.60;2.70;;;;;;;13.53;83.02;96184.75;107159;1276;52548;-81
2022/06/21 02:39:25;;;;;;;3.40;2.80;;;;;;;13.50;82.33;96183.17;107237;1274;71376;-82
2022/06/21 02:42:02;;;;;;;5.30;3.00;;;;;;;13.41;82.45;96181.27;107209;1274;43050;-81
2022/06/21 02:44:39;;;;;;;2.70;2.50;;;;;;;13.28;82.56;96183.59;107228;1274;35696;-81
2022/06/21 02:47:17;;;;;;;5.20;3.20;;;;;;;13.24;82.79;96181.25;107246;1274;48400;-82
2022/06/21 02:49:53;;;;;;;4.10;2.70;;;;;;;13.26;82.82;96190.95;107258;1274;32467;-81
2022/06/21 02:52:29;;;;;;;3.70;3.10;;;;;;;13.27;82.58;96190.95;107341;1274;34852;-82
2022/06/21 02:55:06;;;;;;;4.30;2.70;;;;;;;13.24;82.51;96191.61;107235;1274;32982;-81
2022/06/21 02:57:43;;;;;;;4.00;2.60;;;;;;;13.25;82.55;96189.31;107236;1274;31529;-81
2022/06/21 03:00:18;;;;;;;3.10;2.70;;;;;;;13.28;82.42;96188.86;107158;1275;58977;-81
2022/06/21 03:02:49;;;;;;;3.50;2.30;;;;;;;13.23;82.54;96186.80;107216;1274;55945;-81
2022/06/21 03:05:25;;;;;;;2.70;2.50;;;;;;;13.12;82.87;96188.01;107326;1275;39796;-81
2022/06/21 03:08:02;;;;;;;3.50;2.30;;;;;;;13.04;83.07;96190.06;107254;1274;50163;-81
2022/06/21 03:10:37;;;;;;;3.40;2.50;;;;;;;12.99;83.53;96190.50;107236;1274;37441;-81
2022/06/21 03:13:17;;;;;;;3.00;2.70;;;;;;;12.93;83.49;96195.86;107191;1274;45298;-82
2022/06/21 03:15:53;;;;;;;3.90;2.90;;;;;;;12.90;83.27;96185.77;107182;1275;32541;-81
2022/06/21 03:18:27;;;;;;;3.50;2.80;;;;;;;12.89;83.45;96189.73;107323;1274;33132;-82
2022/06/21 03:20:59;;;;;;;3.80;3.10;;;;;;;12.90;83.24;96191.41;107177;1274;58725;-81
2022/06/21 03:23:31;;;;;;;4.30;2.80;;;;;;;12.90;83.21;96199.32;107211;1274;52676;-82
2022/06/21 03:26:06;;;;;;;3.40;2.80;;;;;;;12.95;82.84;96204.02;107202;1274;54143;-81
2022/06/21 03:28:41;;;;;;;3.60;2.90;;;;;;;13.00;82.87;96205.98;107293;1274;35989;-81
2022/06/21 03:31:15;;;;;;;2.70;2.20;;;;;;;12.99;82.48;96207.60;107271;1274;41872;-81
2022/06/21 03:33:58;;;;;;;3.30;2.60;;;;;;;12.96;82.49;96212.84;107201;1275;60321;-82
2022/06/21 03:36:30;;;;;;;3.60;2.80;;;;;;;12.94;82.48;96209.38;107307;1274;41657;-81
2022/06/21 03:39:05;;;;;;;4.00;3.20;;;;;;;12.92;82.49;96209.91;107264;1275;41321;-81
2022/06/21 03:41:43;;;;;;;4.00;2.60;;;;;;;12.91;82.24;96212.25;107298;1275;32663;-81
2022/06/21 03:44:23;;;;;;;4.20;2.70;;;;;;;12.90;81.85;96213.31;107320;1274;34610;-82
2022/06/21 03:47:01;;;;;;;4.80;2.90;;;;;;;12.92;81.49;96212.27;107432;1274;31867;-82
2022/06/21 03:49:37;;;;;;;5.80;2.40;;;;;;;12.93;81.02;96216.40;107297;1275;45203;-81
2022/06/21 03:52:14;;;;;;;3.20;2.50;;;;;;;12.88;80.85;96208.55;107201;1275;69759;-82
2022/06/21 03:54:50;;;;;;;2.60;2.20;;;;;;;12.82;80.27;96207.89;107340;1274;37568;-82
2022/06/21 03:57:25;;;;;;;3.80;3.10;;;;;;;12.80;79.80;96217.65;107374;1274;37332;-82
2022/06/21 04:00:02;;;;;;;5.90;3.30;;;;;;;12.82;79.51;96218.52;107401;1274;38650;-81
2022/06/21 04:02:40;;;;;;;5.40;2.50;;;;;;;12.84;79.43;96224.08;107359;1274;31975;-82
2022/06/21 04:05:19;;;;;;;3.30;2.90;;;;;;;12.85;79.57;96219.86;107234;1274;52279;-82
2022/06/21 04:07:55;;;;;;;4.00;2.90;;;;;;;12.88;79.43;96227.70;107261;1275;45918;-82
2022/06/21 04:10:32;;;;;;;3.40;2.60;;;;;;;12.86;78.77;96218.11;107297;1274;55767;-80
2022/06/21 04:13:12;;;;;;;5.40;3.00;;;;;;;12.81;78.72;96226.05;107256;1274;82900;-81
2022/06/21 04:15:49;;;;;;;5.00;2.30;;;;;;;12.77;78.37;96232.36;107297;1275;34251;-81
2022/06/21 04:18:26;;;;;;;5.20;2.60;;;;;;;12.74;78.27;96229.78;107328;1275;33735;-82
2022/06/21 04:21:03;;;;;;;5.20;2.80;;;;;;;12.72;78.41;96234.93;107284;1274;40226;-81
2022/06/21 04:23:39;;;;;;;4.50;3.20;;;;;;;12.71;78.43;96233.46;107145;1275;58767;-81
2022/06/21 04:26:15;;;;;;;3.70;3.30;;;;;;;12.71;78.41;96236.05;107317;1274;33028;-82
2022/06/21 04:28:50;;;;;;;3.60;2.40;;;;;;;12.73;78.35;96233.52;107298;1274;47865;-82
2022/06/21 04:31:28;;;;;;;4.60;3.10;;;;;;;12.75;78.08;96239.73;107334;1275;54508;-82
2022/06/21 04:34:06;;;;;;;5.70;2.80;;;;;;;12.81;77.89;96242.48;107260;1274;47584;-81
2022/06/21 04:36:47;;;;;;;3.10;2.40;;;;;;;12.87;77.22;96239.05;107330;1274;37616;-81
2022/06/21 04:39:23;;;;;;;4.30;2.40;;;;;;;12.87;76.83;96246.06;107345;1274;32759;-82
2022/06/21 04:41:59;;;;;;;3.20;2.10;;;;;;;12.89;76.55;96241.13;107404;1274;31407;-81
2022/06/21 04:44:37;;;;;;;3.20;1.60;;;;;;;12.88;75.47;96239.13;107291;1274;55158;-81
2022/06/21 04:47:17;;;;;;;2.20;1.30;;;;;;;12.88;75.34;96240.63;107295;1275;34324;-81
2022/06/21 04:49:52;;;;;;;3.90;2.40;;;;;;;12.92;75.34;96238.86;107370;1274;40873;-82
2022/06/21 04:52:30;;;;;;;3.50;2.50;;;;;;;12.95;74.62;96237.27;107101;1275;292823;-83
2022/06/21 04:55:02;;;;;;;4.40;2.90;;;;;;;12.99;74.82;96239.52;107238;1274;71660;-82
2022/06/21 04:57:34;;;;;;;7.50;3.30;;;;;;;13.09;74.78;96237.99;107367;1274;28593;-82
2022/06/21 05:00:12;;;;;;;3.20;2.50;;;;;;;13.23;74.46;96237.53;107301;1275;36420;-82
2022/06/21 05:02:47;;;;;;;3.40;2.60;;;;;;;13.28;73.96;96234.02;107316;1274;39028;-82
2022/06/21 05:05:23;;;;;;;3.70;2.70;;;;;;;13.39;73.99;96237.55;107230;1275;43250;-82
2022/06/21 05:07:59;;;;;;;3.80;2.90;;;;;;;13.53;73.54;96238.02;107409;1274;35937;-82
2022/06/21 05:10:33;;;;;;;8.00;3.60;;;;;;;13.50;72.88;96236.80;107284;1274;36028;-81
2022/06/21 05:13:12;;;;;;;4.40;3.30;;;;;;;13.55;72.70;96233.92;107320;1274;38678;-81
2022/06/21 05:15:44;;;;;;;3.80;3.40;;;;;;;13.54;72.55;96234.04;107344;1274;33658;-81
2022/06/21 05:18:21;;;;;;;9.20;3.60;;;;;;;13.69;72.47;96225.30;107195;1274;83153;-78
2022/06/21 05:20:59;;;;;;;7.00;3.50;;;;;;;13.97;71.73;96237.06;107338;1274;42106;-77
2022/06/21 05:23:32;;;;;;;4.30;3.10;;;;;;;14.02;70.77;96236.55;107171;1274;54786;-76
2022/06/21 05:26:11;;;;;;;4.50;3.00;;;;;;;13.94;70.85;96233.23;107276;1274;43295;-77
2022/06/21 05:28:46;;;;;;;5.70;4.00;;;;;;;13.74;70.81;96236.45;107285;1274;41723;-78
2022/06/21 05:31:23;;;;;;;6.40;3.70;;;;;;;13.61;71.49;96237.54;107189;1275;67491;-77
2022/06/21 05:33:59;;;;;;;5.90;3.70;;;;;;;13.49;71.35;96242.75;107370;1275;53667;-76
2022/06/21 05:36:36;;;;;;;5.60;3.40;;;;;;;13.40;71.63;96242.36;107176;1274;74725;-76
2022/06/21 05:39:20;;;;;;;5.20;3.90;;;;;;;13.50;71.72;96245.70;106878;1275;100625;-76
2022/06/21 05:41:54;;;;;;;4.30;3.30;;;;;;;14.04;70.89;96242.36;107358;1274;34368;-76
2022/06/21 05:44:34;;;;;;;5.00;3.40;;;;;;;14.26;70.21;96241.52;107207;1275;35390;-75
2022/06/21 05:47:11;;;;;;;5.50;3.70;;;;;;;14.41;70.08;96237.15;107338;1274;52935;-76
2022/06/21 05:49:43;;;;;;;5.60;3.20;;;;;;;14.50;69.27;96237.13;107206;1274;49918;-76
2022/06/21 05:52:21;;;;;;;5.00;3.50;;;;;;;14.98;68.66;96233.84;107198;1274;74298;-76
2022/06/21 05:54:56;;;;;;;5.60;3.50;;;;;;;16.82;66.25;96230.32;107305;1274;51973;-77
2022/06/21 05:57:41;;;;;;;5.10;3.30;;;;;;;18.15;62.78;96230.84;107219;1274;41665;-76
2022/06/21 06:00:25;;;;;;;3.90;2.70;;;;;;;19.02;58.85;96224.98;106020;1274;1774659;-77
2022/06/21 06:03:05;;;;;;;5.50;3.00;;;;;;;19.57;56.08;96225.64;106068;1274;1413396;-76
2022/06/21 06:05:38;;;;;;;5.60;2.80;;;;;;;18.79;54.86;96224.04;107190;1274;45244;-76
2022/06/21 06:08:14;;;;;;;3.00;2.20;;;;;;;19.03;54.69;96224.95;107236;1274;55726;-76
2022/06/21 06:10:49;;;;;;;5.30;3.10;;;;;;;18.11;54.47;96225.81;107150;1274;65403;-77
2022/06/21 06:13:20;;;;;;;5.30;3.10;;;;;;;17.64;55.37;96236.67;95435;1275;5439053;-76
2022/06/21 06:15:54;;;;;;;5.90;3.40;;;;;;;16.36;57.01;96241.77;107039;1274;68835;-77
2022/06/21 06:18:31;;;;;;;3.90;3.20;;;;;;;15.41;59.50;96245.33;107081;1274;60226;-76
2022/06/21 06:21:05;;;;;;;7.40;4.70;;;;;;;14.76;61.95;96243.71;107237;1274;32727;-76
2022/06/21 06:23:42;;;;;;;5.40;4.00;;;;;;;14.27;63.83;96244.21;107200;1274;32317;-75
2022/06/21 06:26:17;;;;;;;3.00;2.60;;;;;;;13.92;64.92;96240.91;107179;1275;34005;-77
2022/06/21 06:28:56;;;;;;;9.00;3.80;;;;;;;13.97;66.15;96238.68;107168;1274;47380;-76
2022/06/21 06:31:32;;;;;;;5.90;3.50;;;;;;;16.14;63.28;96230.70;107210;1274;33037;-76
2022/06/21 06:34:06;;;;;;;5.60;3.50;;;;;;;16.31;60.27;96227.36;107188;1274;40371;-76
2022/06/21 06:36:42;;;;;;;5.50;3.10;;;;;;;16.25;59.09;96232.70;107182;1274;38152;-76
2022/06/21 06:39:22;;;;;;;6.00;2.90;;;;;;;15.78;59.85;96235.87;107208;1274;89843;-76
2022/06/21 06:41:56;;;;;;;;;;;;;;;17.02;56.72;96227.88;107357;1274;37050;-76
2022/06/21 06:44:30;;;;;;;5.30;3.30;;;;;;;16.69;56.10;96242.48;107297;1274;49391;-76
2022/06/21 06:47:04;;;;;;;7.50;3.50;;;;;;;15.52;57.96;96239.50;107208;1274;52177;-76
2022/06/21 06:49:44;;;;;;;5.50;3.00;;;;;;;14.81;60.25;96246.54;107255;1274;35522;-76
2022/06/21 06:52:20;;;;;;;5.70;3.20;;;;;;;14.39;62.08;96252.71;107254;1274;36498;-76
2022/06/21 06:54:59;;;;;;;6.40;3.50;;;;;;;15.09;62.72;96241.20;107275;1274;43455;-76
2022/06/21 06:57:38;;;;;;;4.60;2.80;;;;;;;17.19;60.81;96241.90;107219;1274;34597;-76
2022/06/21 07:00:17;;;;;;;4.10;2.80;;;;;;;19.03;56.05;96235.23;107220;1274;33635;-76
2022/06/21 07:02:54;;;;;;;4.30;2.10;;;;;;;18.34;53.22;96234.79;107206;1274;36975;-76
2022/06/21 07:05:31;;;;;;;6.50;2.00;;;;;;;16.75;54.01;96238.86;107299;1274;34005;-75
2022/06/21 07:08:13;;;;;;;5.30;2.30;;;;;;;15.47;56.77;96232.36;107282;1274;39151;-76
2022/06/21 07:10:47;;;;;;;3.70;2.20;;;;;;;16.09;58.85;96247.85;107232;1274;34462;-75
2022/06/21 07:13:18;;;;;;;3.30;2.20;;;;;;;16.92;57.03;96240.93;107116;1274;42300;-76
2022/06/21 07:15:52;;;;;;;3.10;1.60;;;;;;;19.05;51.03;96248.02;106991;1275;70963;-76
2022/06/21 07:18:31;;;;;;;3.90;1.70;;;;;;;19.18;50.73;96237.98;106193;1274;1291832;-76
2022/06/21 07:21:03;;;;;;;3.90;1.70;;;;;;;20.51;48.40;96231.05;106999;1274;91406;-77
2022/06/21 07:23:34;;;;;;;3.30;1.60;;;;;;;19.67;47.39;96225.95;107046;1274;57453;-76
2022/06/21 07:26:13;;;;;;;3.10;1.70;;;;;;;19.21;48.13;96245.92;107117;1275;84322;-76
2022/06/21 07:28:47;;;;;;;2.80;1.70;;;;;;;17.82;47.88;96250.33;107022;1274;76073;-76
2022/06/21 07:31:25;;;;;;;4.30;1.80;;;;;;;17.55;49.39;96250.36;107067;1274;65792;-77
2022/06/21 07:34:02;;;;;;;3.30;1.70;;;;;;;19.56;47.40;96243.39;107166;1274;40554;-76
2022/06/21 07:36:39;;;;;;;2.40;1.30;;;;;;;21.40;45.38;96235.37;107185;1274;34030;-77
2022/06/21 07:39:14;;;;;;;4.00;1.40;;;;;;;21.33;44.36;96240.24;107200;1274;35034;-77
2022/06/21 07:41:49;;;;;;;1.70;1.10;;;;;;;20.59;45.06;96233.02;107130;1274;40046;-77
2022/06/21 07:44:28;;;;;;;5.20;1.50;;;;;;;19.69;45.80;96232.31;107118;1274;32080;-76
2022/06/21 07:47:05;;;;;;;2.10;1.10;;;;;;;18.25;47.73;96246.30;107151;1275;52671;-76
2022/06/21 07:49:42;;;;;;;2.30;1.40;;;;;;;17.32;48.82;96245.35;107243;1274;32418;-76
2022/06/21 07:52:20;;;;;;;2.90;1.30;;;;;;;16.41;50.80;96246.37;107192;1274;49180;-76
2022/06/21 07:55:01;;;;;;;3.60;1.40;;;;;;;16.10;52.59;96246.40;107240;1274;50621;-76
2022/06/21 07:57:36;;;;;;;4.00;1.40;;;;;;;15.81;52.69;96253.95;107182;1274;37379;-76
2022/06/21 08:00:13;;;;;;;2.60;1.50;;;;;;;15.54;54.00;96247.40;107147;1274;55770;-76
2022/06/21 08:08:40;;;;;;;3.30;1.20;;;;;;;17.73;49.82;96259.09;107022;1274;38599;-76
2022/06/21 08:11:19;;;;;;;2.10;1.20;;;;;;;17.10;49.51;96255.38;107030;1275;40822;-76
2022/06/21 08:13:50;;;;;;;2.30;0.80;;;;;;;18.61;48.65;96253.02;107209;1274;31082;-77
2022/06/21 08:16:27;;;;;;;1.40;0.90;;;;;;;19.45;45.02;96259.48;107262;1275;38479;-76
2022/06/21 08:19:08;;;;;;;2.90;1.20;;;;;;;17.91;46.53;96264.82;107188;1275;49195;-76
2022/06/21 08:21:46;;;;;;;1.30;1.00;;;;;;;16.86;47.73;96260.63;107105;1273;46874;-76
2022/06/21 08:24:22;;;;;;;2.10;1.20;;;;;;;16.08;49.52;96266.55;107203;1274;46320;-76
2022/06/21 08:27:03;;;;;;;1.90;1.20;;;;;;;15.80;51.29;96269.27;107313;1274;33213;-76
2022/06/21 08:29:38;;;;;;;3.10;1.10;;;;;;;15.99;51.91;96266.84;107243;1274;38333;-75
2022/06/21 08:32:15;;;;;;;4.80;1.40;;;;;;;15.96;51.78;96268.88;107257;1274;45489;-76
2022/06/21 08:34:49;;;;;;;3.20;1.00;;;;;;;15.87;50.66;96264.21;107252;1274;42387;-76
2022/06/21 08:37:28;;;;;;;1.90;0.70;;;;;;;16.13;49.48;96267.76;107279;1274;31668;-76
2022/06/21 08:40:09;;;;;;;1.60;0.90;;;;;;;15.70;48.63;96262.60;107245;1274;40723;-77
2022/06/21 08:43:14;;;;;;;1.40;0.80;;;;;;;15.71;50.00;96265.15;107107;1274;45239;-76
2022/06/21 08:46:13;;;;;;;1.20;0.80;;;;;;;15.66;50.20;96262.80;107139;1275;31948;-76
2022/06/21 08:49:09;;;;;;;2.70;1.00;;;;;;;15.39;50.63;96268.48;107251;1274;45214;-76
2022/06/21 08:52:10;;;;;;;1.70;0.60;;;;;;;15.52;50.97;96262.88;107208;1273;46985;-76
2022/06/21 08:54:44;;;;;;;;;;;;;;;15.65;50.32;96265.41;107248;1274;49796;-75
2022/06/21 08:57:21;;;;;;;1.50;1.10;;;;;;;15.39;50.39;96257.27;107256;1274;42356;-75
2022/06/21 09:00:06;;;;;;;2.90;0.60;;;;;;;15.13;50.89;96266.41;107308;1274;41564;-76
2022/06/21 09:02:50;;;;;;;1.70;1.50;;;;;;;15.02;51.46;96271.84;107207;1274;45934;-76
2022/06/21 09:05:42;;;;;;;2.20;0.90;;;;;;;15.43;51.77;96272.27;107244;1274;62265;-78
2022/06/21 09:08:32;;;;;;;1.20;0.90;;;;;;;15.80;50.29;96277.29;107161;1274;113208;-77
2022/06/21 09:11:25;;;;;;;1.80;0.70;;;;;;;16.24;50.63;96265.69;107258;1274;36793;-77
2022/06/21 09:14:18;;;;;;;1.40;0.60;;;;;;;16.59;49.96;96277.11;107149;1274;115316;-77
2022/06/21 09:17:00;;;;;;;1.80;0.90;;;;;;;16.22;48.38;96285.17;107177;1275;37777;-77
2022/06/21 09:19:47;;;;;;;3.80;0.60;;;;;;;15.71;48.75;96286.84;107044;1274;104064;-78
2022/06/21 09:22:32;;;;;;;0.90;0.70;;;;;;;15.44;49.98;96285.58;107016;1274;122574;-77
2022/06/21 09:25:16;;;;;;;1.50;0.80;;;;;;;15.25;50.25;96294.30;107190;1274;54823;-77
2022/06/21 09:27:51;;;;;;;0.80;0.50;;;;;;;15.20;50.91;96294.31;107289;1274;33654;-77
2022/06/21 09:30:29;;;;;;;3.20;0.50;;;;;;;15.10;50.52;96292.14;107316;1274;35063;-78
2022/06/21 09:33:09;;;;;;;2.80;0.70;;;;;;;14.99;50.62;96302.45;107174;1274;39036;-78
2022/06/21 09:35:50;;;;;;;0.90;0.60;;;;;;;14.96;50.25;96305.31;107178;1274;37184;-77
2022/06/21 09:38:32;;;;;;;2.00;0.70;;;;;;;14.94;49.93;96295.10;107133;1274;59108;-78
2022/06/21 09:41:10;;;;;;;5.60;1.40;;;;;;;15.13;50.52;96307.75;107095;1274;44660;-78
2022/06/21 09:44:00;;;;;;;2.40;0.90;;;;;;;15.27;50.19;96304.67;107192;1274;34600;-79
2022/06/21 09:46:41;;;;;;;2.00;0.80;;;;;;;15.30;50.32;96303.13;107197;1274;34229;-79
2022/06/21 09:49:25;;;;;;;5.20;0.80;;;;;;;15.10;50.59;96295.94;107145;1274;67857;-78
2022/06/21 09:52:06;;;;;;;1.10;0.70;;;;;;;14.88;51.57;96304.09;107060;1273;52244;-77
2022/06/21 09:54:39;;;;;;;3.70;1.10;;;;;;;14.92;52.34;96305.79;107147;1274;33234;-78
2022/06/21 09:57:22;;;;;;;2.20;0.80;;;;;;;15.26;52.07;96306.02;107189;1274;37031;-77
2022/06/21 10:00:03;;;;;;;1.90;1.10;;;;;;;15.67;51.42;96305.09;107314;1274;33715;-77
2022/06/21 10:02:40;;;;;;;1.60;0.70;;;;;;;16.04;51.32;96316.07;107265;1274;34995;-78
2022/06/21 10:05:20;;;;;;;1.00;0.50;;;;;;;16.00;50.01;96308.70;107210;1274;42220;-79
2022/06/21 10:08:15;;;;;;;1.30;0.70;;;;;;;15.55;50.12;96307.57;107280;1274;43359;-79
2022/06/21 10:10:56;;;;;;;2.30;1.00;;;;;;;15.01;51.98;96319.88;107185;1274;42207;-77
2022/06/21 10:13:46;;;;;;;1.60;0.70;;;;;;;14.75;53.20;96320.22;107181;1274;46345;-78
2022/06/21 10:16:43;;;;;;;1.50;1.00;;;;;;;14.93;54.36;96317.98;107248;1274;31451;-78
2022/06/21 10:19:32;;;;;;;1.00;0.60;;;;;;;15.17;53.45;96294.55;107136;1275;49698;-78
2022/06/21 10:22:31;;;;;;;1.80;0.90;;;;;;;15.19;52.50;96295.66;107236;1274;35183;-78
2022/06/21 10:25:27;;;;;;;1.80;0.70;;;;;;;15.30;52.46;96295.80;107195;1275;33848;-78
2022/06/21 10:28:31;;;;;;;1.90;0.90;;;;;;;15.31;52.69;96311.05;107185;1274;36183;-74
2022/06/21 10:31:23;;;;;;;2.80;0.90;;;;;;;15.39;51.07;96304.91;107134;1275;46401;-79
2022/06/21 10:34:21;;;;;;;3.70;0.70;;;;;;;15.35;51.08;96312.09;107264;1275;43410;-77
2022/06/21 10:37:08;;;;;;;3.40;0.90;;;;;;;15.40;51.80;96316.89;107259;1274;49539;-79
2022/06/21 10:40:02;;;;;;;4.80;1.00;;;;;;;15.74;51.13;96310.00;107184;1274;47073;-80
2022/06/21 10:42:57;;;;;;;1.20;0.70;;;;;;;15.77;50.70;96306.61;107285;1274;32600;-79
2022/06/21 10:45:49;;;;;;;2.90;0.50;;;;;;;15.65;51.28;96313.93;104638;1274;1837004;-79
2022/06/21 10:48:47;;;;;;;5.30;1.00;;;;;;;15.52;51.83;96324.39;107124;1274;37883;-80
2022/06/21 10:51:32;;;;;;;2.70;1.00;;;;;;;15.53;52.39;96329.48;107092;1275;35643;-79
2022/06/21 10:54:28;;;;;;;2.40;1.20;;;;;;;15.79;53.31;96320.38;107139;1274;49196;-80
2022/06/21 10:57:13;;;;;;;2.80;0.90;;;;;;;16.11;53.19;96321.76;107159;1275;66138;-80
2022/06/21 11:03:12;;;;;;;4.50;1.10;;;;;;;16.26;52.07;96325.83;107295;1274;40067;-80
2022/06/21 11:05:56;;;;;;;2.00;0.90;;;;;;;16.46;52.50;96327.38;107357;1274;34525;-81
2022/06/21 11:08:37;;;;;;;0.60;0.60;;;;;;;16.64;51.28;96312.25;107257;1275;53715;-79
2022/06/21 11:11:12;;;;;;;;;;;;;;;16.52;50.88;96325.17;107292;1275;61119;-81
2022/06/21 11:13:48;;;;;;;0.80;0.70;;;;;;;16.37;50.77;96323.73;107306;1275;62200;-81
2022/06/21 11:16:36;;;;;;;0.70;0.50;;;;;;;16.27;51.49;96323.73;107320;1274;35421;-81
2022/06/21 11:19:18;;;;;;;1.50;0.60;;;;;;;16.30;51.51;96332.72;107308;1274;35083;-81
2022/06/21 11:22:01;;;;;;;1.70;0.90;;;;;;;16.47;51.48;96318.55;107327;1274;34158;-80
2022/06/21 11:24:42;;;;;;;3.60;0.90;;;;;;;16.58;50.17;96314.88;107364;1274;36889;-81
2022/06/21 11:27:21;;;;;;;1.10;1.00;;;;;;;16.38;49.98;96323.25;107246;1275;35668;-81
2022/06/21 11:30:03;;;;;;;4.20;1.00;;;;;;;16.66;51.00;96326.71;107340;1275;32954;-82
2022/06/21 11:32:42;;;;;;;3.30;1.20;;;;;;;16.65;49.80;96323.69;107261;1274;35042;-80
2022/06/21 11:35:23;;;;;;;0.60;0.50;;;;;;;16.49;50.18;96328.97;107235;1274;36016;-81
2022/06/21 11:38:06;;;;;;;1.60;0.60;;;;;;;16.68;50.07;96324.20;107265;1274;41404;-81
2022/06/21 11:40:52;;;;;;;1.40;0.60;;;;;;;16.68;49.17;96326.59;107291;1275;31381;-80
2022/06/21 11:43:42;;;;;;;1.10;0.60;;;;;;;16.44;48.69;96325.23;107260;1274;30649;-82
2022/06/21 11:46:23;;;;;;;1.40;0.60;;;;;;;16.21;49.99;96335.02;107180;1274;54171;-81
2022/06/21 11:49:34;;;;;;;2.30;0.80;;;;;;;16.29;50.33;96334.59;107218;1274;62402;-81
2022/06/21 11:52:46;;;;;;;1.90;0.70;;;;;;;16.54;49.19;96336.11;107231;1275;37203;-81
2022/06/21 11:55:26;;;;;;;1.70;0.70;;;;;;;16.46;49.05;96341.66;107034;1274;115590;-82
2022/06/21 11:58:05;;;;;;;1.20;0.50;;;;;;;16.24;49.20;96339.52;107080;1274;50629;-80
2022/06/21 12:00:41;;;;;;;2.60;0.80;;;;;;;16.14;49.66;96337.78;107060;1275;40404;-81
2022/06/21 12:03:22;;;;;;;1.50;1.00;;;;;;;16.16;49.86;96336.92;107861;1274;68818;-81
2022/06/21 12:05:58;;;;;;;3.00;0.80;;;;;;;16.03;49.66;96335.66;107286;1275;52405;-81
2022/06/21 12:08:36;;;;;;;0.80;0.50;;;;;;;15.87;50.18;96324.94;107260;1274;38851;-79
2022/06/21 12:11:19;;;;;;;2.30;1.00;;;;;;;15.67;50.51;96327.27;107188;1275;36089;-81
2022/06/21 12:14:00;;;;;;;2.00;0.70;;;;;;;15.50;51.07;96324.99;107292;1275;42967;-81
2022/06/21 12:16:36;;;;;;;;;;;;;;;15.48;51.42;96321.79;107245;1275;38552;-81
2022/06/21 12:19:13;;;;;;;2.20;1.00;;;;;;;15.73;51.41;96314.16;107156;1275;35643;-81
2022/06/21 12:21:52;;;;;;;1.60;0.90;;;;;;;16.04;50.88;96312.56;107139;1275;38075;-81
2022/06/21 12:24:27;;;;;;;1.00;0.40;;;;;;;16.11;50.36;96320.91;107166;1275;62161;-81
2022/06/21 12:26:59;;;;;;;0.60;0.50;;;;;;;15.97;50.01;96326.42;107333;1274;41282;-80
2022/06/21 12:29:30;;;;;;;0.50;0.40;;;;;;;15.79;50.06;96325.27;107306;1274;58237;-80